KLM3CM EHAM-EFHK
Flight info
| Callsign | KLM3CM |
|---|---|
| Flight time | N/A |
| Altitude | 37000 |
| Route | ANDIK N873 JUIST DCT DOSUR DCT RASMU DCT ROGMI DCT ALAMI DCT OKEVU DCT EVADI Y370 DIVAM |
| Aircraft | A20N/M-SDE2E3FGHIRWXY/LB1 |
Departure
| Time | N/A |
|---|---|
| Airport | Amsterdam Airport Schiphol (EHAM) |
Arrival
| Time | 2026-05-03 20:47 |
|---|---|
| Airport | Helsinki Vantaa Airport (EFHK) |
| Time | Latitude | Longitude | Altitude | Speed | Heading |
|---|---|---|---|---|---|
| 2026-05-03 20:15 | 59.41843 | 22.08816 | 36882 ft | 511 kts | 58° |
| 2026-05-03 20:15 | 59.45227 | 22.21115 | 36880 ft | 511 kts | 58° |
| 2026-05-03 20:16 | 59.48594 | 22.33415 | 36870 ft | 510 kts | 58° |
| 2026-05-03 20:16 | 59.51960 | 22.45673 | 36879 ft | 509 kts | 57° |
| 2026-05-03 20:17 | 59.55470 | 22.57700 | 36877 ft | 509 kts | 56° |
| 2026-05-03 20:17 | 59.59051 | 22.69756 | 36875 ft | 510 kts | 56° |
| 2026-05-03 20:18 | 59.62603 | 22.81829 | 36861 ft | 503 kts | 56° |
| 2026-05-03 20:18 | 59.64325 | 22.87745 | 36765 ft | 490 kts | 56° |
| 2026-05-03 20:18 | 59.65436 | 22.91583 | 36654 ft | 483 kts | 56° |
| 2026-05-03 20:18 | 59.67643 | 22.99219 | 36318 ft | 471 kts | 56° |
| 2026-05-03 20:19 | 59.69220 | 23.04688 | 36221 ft | 460 kts | 55° |
| 2026-05-03 20:19 | 59.70798 | 23.10164 | 35735 ft | 458 kts | 55° |
| 2026-05-03 20:19 | 59.72398 | 23.15700 | 34835 ft | 468 kts | 54° |
| 2026-05-03 20:19 | 59.74036 | 23.21361 | 33893 ft | 480 kts | 54° |
| 2026-05-03 20:20 | 59.75145 | 23.25204 | 33161 ft | 487 kts | 54° |
| 2026-05-03 20:20 | 59.77420 | 23.33119 | 31715 ft | 501 kts | 55° |
| 2026-05-03 20:20 | 59.78567 | 23.37127 | 31025 ft | 506 kts | 55° |
| 2026-05-03 20:20 | 59.80313 | 23.43259 | 30064 ft | 513 kts | 55° |
| 2026-05-03 20:21 | 59.82075 | 23.49474 | 29034 ft | 518 kts | 56° |
| 2026-05-03 20:21 | 59.84428 | 23.57751 | 27750 ft | 519 kts | 54° |
| 2026-05-03 20:21 | 59.86400 | 23.63759 | 26786 ft | 519 kts | 51° |
| 2026-05-03 20:21 | 59.88454 | 23.69660 | 25809 ft | 520 kts | 50° |
| 2026-05-03 20:22 | 59.89859 | 23.73661 | 25148 ft | 522 kts | 50° |
| 2026-05-03 20:22 | 59.91914 | 23.79515 | 24173 ft | 524 kts | 51° |
| 2026-05-03 20:22 | 59.94000 | 23.85481 | 23265 ft | 524 kts | 51° |
| 2026-05-03 20:22 | 59.96069 | 23.91422 | 22413 ft | 520 kts | 51° |
| 2026-05-03 20:23 | 59.98776 | 23.99223 | 21413 ft | 511 kts | 51° |
| 2026-05-03 20:23 | 60.00136 | 24.03153 | 20929 ft | 507 kts | 51° |
| 2026-05-03 20:23 | 60.02126 | 24.08916 | 20221 ft | 500 kts | 52° |
| 2026-05-03 20:23 | 60.04078 | 24.14581 | 19511 ft | 493 kts | 52° |
| 2026-05-03 20:24 | 60.05990 | 24.20142 | 18834 ft | 487 kts | 52° |
| 2026-05-03 20:24 | 60.07893 | 24.25692 | 18146 ft | 480 kts | 52° |
| 2026-05-03 20:24 | 60.09768 | 24.31170 | 17377 ft | 474 kts | 52° |
| 2026-05-03 20:24 | 60.11621 | 24.36596 | 16606 ft | 468 kts | 53° |
| 2026-05-03 20:25 | 60.13564 | 24.41758 | 15836 ft | 459 kts | 45° |
| 2026-05-03 20:25 | 60.15526 | 24.46773 | 15085 ft | 457 kts | 57° |
| 2026-05-03 20:25 | 60.16704 | 24.52656 | 14395 ft | 453 kts | 76° |
| 2026-05-03 20:25 | 60.16829 | 24.60876 | 13525 ft | 441 kts | 102° |
| 2026-05-03 20:26 | 60.16274 | 24.64761 | 13023 ft | 433 kts | 115° |
| 2026-05-03 20:26 | 60.14743 | 24.69812 | 12314 ft | 418 kts | 134° |
| 2026-05-03 20:26 | 60.12563 | 24.73479 | 11634 ft | 403 kts | 151° |
| 2026-05-03 20:26 | 60.10292 | 24.76690 | 10982 ft | 400 kts | 140° |
| 2026-05-03 20:27 | 60.08645 | 24.81164 | 10316 ft | 401 kts | 118° |
| 2026-05-03 20:27 | 60.07893 | 24.86484 | 9664 ft | 398 kts | 96° |
| 2026-05-03 20:27 | 60.08423 | 24.93610 | 8719 ft | 389 kts | 66° |
| 2026-05-03 20:27 | 60.09323 | 24.96743 | 8257 ft | 383 kts | 51° |
| 2026-05-03 20:28 | 60.11242 | 25.00181 | 7592 ft | 371 kts | 28° |
| 2026-05-03 20:28 | 60.13651 | 25.01855 | 6923 ft | 358 kts | 5° |
| 2026-05-03 20:28 | 60.16069 | 25.02361 | 6331 ft | 351 kts | 7° |
| 2026-05-03 20:28 | 60.18381 | 25.03827 | 5680 ft | 349 kts | 24° |
| 2026-05-03 20:29 | 60.20428 | 25.06400 | 5043 ft | 344 kts | 34° |
| 2026-05-03 20:29 | 60.22312 | 25.09306 | 4424 ft | 339 kts | 37° |
| 2026-05-03 20:29 | 60.24135 | 25.12245 | 3804 ft | 333 kts | 38° |
| 2026-05-03 20:29 | 60.25919 | 25.15153 | 3187 ft | 327 kts | 38° |
| 2026-05-03 20:30 | 60.27676 | 25.18025 | 2570 ft | 322 kts | 38° |
| 2026-05-03 20:30 | 60.29397 | 25.20846 | 2107 ft | 315 kts | 38° |
| 2026-05-03 20:30 | 60.31070 | 25.23590 | 2367 ft | 307 kts | 38° |
| 2026-05-03 20:30 | 60.32644 | 25.26174 | 2781 ft | 279 kts | 38° |
| 2026-05-03 20:31 | 60.34079 | 25.28535 | 2913 ft | 256 kts | 38° |
| 2026-05-03 20:31 | 60.35412 | 25.30730 | 2925 ft | 239 kts | 38° |
| 2026-05-03 20:31 | 60.36657 | 25.32779 | 2923 ft | 224 kts | 38° |
| 2026-05-03 20:31 | 60.37821 | 25.34698 | 2924 ft | 209 kts | 38° |
| 2026-05-03 20:32 | 60.38932 | 25.36528 | 2926 ft | 204 kts | 38° |
| 2026-05-03 20:32 | 60.40017 | 25.38391 | 2940 ft | 205 kts | 43° |
| 2026-05-03 20:32 | 60.41014 | 25.40449 | 2940 ft | 205 kts | 46° |
| 2026-05-03 20:32 | 60.41970 | 25.42549 | 2983 ft | 206 kts | 47° |
| 2026-05-03 20:33 | 60.42934 | 25.44689 | 2991 ft | 206 kts | 47° |
| 2026-05-03 20:33 | 60.43966 | 25.46669 | 2991 ft | 205 kts | 32° |
| 2026-05-03 20:33 | 60.45263 | 25.47759 | 2983 ft | 201 kts | 5° |
| 2026-05-03 20:33 | 60.46599 | 25.47351 | 3012 ft | 189 kts | 330° |
| 2026-05-03 20:34 | 60.47457 | 25.45681 | 2962 ft | 162 kts | 294° |
| 2026-05-03 20:34 | 60.47618 | 25.43605 | 2977 ft | 147 kts | 265° |
| 2026-05-03 20:34 | 60.47484 | 25.41549 | 2995 ft | 147 kts | 261° |
| 2026-05-03 20:34 | 60.47309 | 25.39494 | 2993 ft | 148 kts | 260° |
| 2026-05-03 20:35 | 60.47134 | 25.37465 | 2992 ft | 148 kts | 260° |
| 2026-05-03 20:35 | 60.46958 | 25.35406 | 2992 ft | 148 kts | 260° |
| 2026-05-03 20:35 | 60.46785 | 25.33349 | 2991 ft | 148 kts | 260° |
| 2026-05-03 20:35 | 60.46611 | 25.31287 | 2990 ft | 148 kts | 260° |
| 2026-05-03 20:36 | 60.46432 | 25.29229 | 2993 ft | 148 kts | 256° |
| 2026-05-03 20:36 | 60.46067 | 25.27283 | 2993 ft | 148 kts | 242° |
| 2026-05-03 20:36 | 60.45492 | 25.25550 | 2993 ft | 149 kts | 232° |
| 2026-05-03 20:36 | 60.44820 | 25.23958 | 2990 ft | 149 kts | 229° |
| 2026-05-03 20:37 | 60.44134 | 25.22427 | 2992 ft | 149 kts | 229° |
| 2026-05-03 20:37 | 60.43436 | 25.20878 | 2991 ft | 149 kts | 229° |
| 2026-05-03 20:37 | 60.42742 | 25.19328 | 2988 ft | 149 kts | 229° |
| 2026-05-03 20:37 | 60.42051 | 25.17774 | 2846 ft | 148 kts | 229° |
| 2026-05-03 20:38 | 60.41516 | 25.16022 | 2611 ft | 146 kts | 259° |
| 2026-05-03 20:38 | 60.41475 | 25.13993 | 2474 ft | 145 kts | 276° |
| 2026-05-03 20:38 | 60.41602 | 25.11958 | 2329 ft | 146 kts | 278° |
| 2026-05-03 20:38 | 60.41757 | 25.09922 | 2173 ft | 146 kts | 279° |
| 2026-05-03 20:39 | 60.42022 | 25.07951 | 2000 ft | 145 kts | 305° |
| 2026-05-03 20:39 | 60.42735 | 25.06561 | 1874 ft | 142 kts | 326° |
| 2026-05-03 20:39 | 60.43585 | 25.05512 | 1996 ft | 143 kts | 330° |
| 2026-05-03 20:39 | 60.44452 | 25.04562 | 1997 ft | 144 kts | 331° |
| 2026-05-03 20:40 | 60.45340 | 25.03610 | 1994 ft | 145 kts | 331° |
| 2026-05-03 20:40 | 60.46232 | 25.02656 | 1995 ft | 145 kts | 331° |
| 2026-05-03 20:40 | 60.47127 | 25.01699 | 1995 ft | 145 kts | 331° |
| 2026-05-03 20:40 | 60.48018 | 25.00744 | 1989 ft | 145 kts | 331° |
| 2026-05-03 20:41 | 60.48904 | 24.99789 | 1994 ft | 145 kts | 331° |
| 2026-05-03 20:41 | 60.49791 | 24.98829 | 1990 ft | 144 kts | 331° |
| 2026-05-03 20:41 | 60.50659 | 24.97837 | 1992 ft | 145 kts | 323° |
| 2026-05-03 20:41 | 60.51328 | 24.96342 | 1987 ft | 144 kts | 296° |
| 2026-05-03 20:42 | 60.51455 | 24.94367 | 1980 ft | 145 kts | 253° |
| 2026-05-03 20:42 | 60.50886 | 24.92685 | 2012 ft | 147 kts | 227° |
| 2026-05-03 20:42 | 60.50123 | 24.91276 | 2001 ft | 149 kts | 223° |
| 2026-05-03 20:42 | 60.49336 | 24.89906 | 1999 ft | 149 kts | 223° |
| 2026-05-03 20:43 | 60.48550 | 24.88540 | 1994 ft | 149 kts | 223° |
| 2026-05-03 20:43 | 60.47761 | 24.87164 | 2000 ft | 149 kts | 223° |
| 2026-05-03 20:43 | 60.46973 | 24.85786 | 1995 ft | 150 kts | 223° |
| 2026-05-03 20:43 | 60.46154 | 24.84523 | 1974 ft | 152 kts | 204° |
| 2026-05-03 20:44 | 60.45108 | 24.84405 | 1991 ft | 153 kts | 172° |
| 2026-05-03 20:44 | 60.44094 | 24.85054 | 1998 ft | 154 kts | 155° |
| 2026-05-03 20:44 | 60.43137 | 24.86042 | 1995 ft | 155 kts | 153° |
| 2026-05-03 20:44 | 60.42179 | 24.87043 | 1996 ft | 155 kts | 153° |
| 2026-05-03 20:45 | 60.41216 | 24.88034 | 1987 ft | 155 kts | 153° |
| 2026-05-03 20:45 | 60.40252 | 24.89021 | 1826 ft | 155 kts | 153° |
| 2026-05-03 20:45 | 60.39285 | 24.90014 | 1613 ft | 156 kts | 153° |
| 2026-05-03 20:45 | 60.38335 | 24.90995 | 1383 ft | 155 kts | 153° |
| 2026-05-03 20:46 | 60.37376 | 24.91983 | 1167 ft | 155 kts | 153° |
| 2026-05-03 20:46 | 60.36414 | 24.92972 | 948 ft | 154 kts | 153° |
| 2026-05-03 20:46 | 60.35465 | 24.93947 | 755 ft | 150 kts | 153° |
| 2026-05-03 20:46 | 60.34576 | 24.94862 | 553 ft | 138 kts | 153° |
| 2026-05-03 20:47 | 60.33730 | 24.95731 | 370 ft | 136 kts | 152° |
| 2026-05-03 20:47 | 60.32896 | 24.96588 | 202 ft | 134 kts | 153° |
| 2026-05-03 20:47 | 60.32156 | 24.97347 | 158 ft | 90 kts | 153° |
| 2026-05-03 20:47 | 60.31818 | 24.97692 | 155 ft | 41 kts | 153° |
| 2026-05-03 20:48 | 60.31583 | 24.97932 | 156 ft | 33 kts | 152° |
| 2026-05-03 20:48 | 60.31461 | 24.97973 | 157 ft | 0 kts | 176° |
| 2026-05-03 20:48 | 60.31451 | 24.97958 | 157 ft | 3 kts | 231° |
| 2026-05-03 20:48 | 60.31423 | 24.97895 | 158 ft | 9 kts | 227° |
| 2026-05-03 20:49 | 60.31403 | 24.97836 | 158 ft | 0 kts | 248° |
| 2026-05-03 20:49 | 60.31402 | 24.97831 | 159 ft | 2 kts | 248° |
| 2026-05-03 20:49 | 60.31389 | 24.97767 | 160 ft | 7 kts | 247° |
| 2026-05-03 20:49 | 60.31393 | 24.97650 | 162 ft | 10 kts | 312° |
| 2026-05-03 20:50 | 60.31468 | 24.97562 | 163 ft | 15 kts | 333° |
| 2026-05-03 20:50 | 60.31554 | 24.97475 | 165 ft | 9 kts | 334° |
| 2026-05-03 20:50 | 60.31620 | 24.97407 | 168 ft | 12 kts | 332° |
| 2026-05-03 20:50 | 60.31709 | 24.97312 | 169 ft | 17 kts | 333° |
| 2026-05-03 20:51 | 60.31823 | 24.97195 | 169 ft | 16 kts | 333° |
| 2026-05-03 20:51 | 60.31864 | 24.97114 | 169 ft | 0 kts | 242° |
| 2026-05-03 20:51 | 60.31858 | 24.97108 | 169 ft | 3 kts | 215° |
| 2026-05-03 20:51 | 60.31826 | 24.97047 | 169 ft | 9 kts | 241° |